Gracewood, GA

3:59 PM EST on March 01, 2015 (GMT -0500)
Augusta Regional At Bush | Change Station
CLOSE
Current Station
Airport
Location: Augusta Bush,
Elevation: 148 ft
Nearby Weather Stations

Elev 148 ft 33.36 °N, 81.96 °W | Updated 6 minutes ago

Overcast
Overcast
42 °F
Feels Like 42 °F
N
0
Wind Variable Wind from North

Today
High -- | Low -- °F
--% Chance of Precip.
Yesterday
High -- | Low -- °F
Precip. -- in
6:56 AM 6:24 PM
Waxing Gibbous, 87% visible
Pressure 30.41 in
Visibility 3.0 miles
Clouds Overcast 700 ft
Dew Point 40 °F
Humidity 92%
Rainfall 0.18 in
Snow Depth Not available.
UV 1 out of 12
Pollen 3.40 out of 12
Air Quality Not available.
Flu Activity Not available.
METAR KAGS 012053Z 00000KT 3SM BR OVC007 06/04 A3041 RMK AO2 RAB31E48 SLP298 P0000 60000 T00560044 56023

More Conditions Fewer Conditions

Pressure 30.41 in
Visibility 3.0 miles
Clouds Overcast 700 ft
Dew Point 40 °F
Humidity 92%
Rainfall 0.18 in
Snow Depth Not available.
UV 1 out of 12
Pollen 3.40 out of 12
Air Quality Not available.
Flu Activity Not available.
METAR KAGS 012053Z 00000KT 3SM BR OVC007 06/04 A3041 RMK AO2 RAB31E48 SLP298 P0000 60000 T00560044 56023

More Conditions Fewer Conditions

10-Day Weather Forecast

Almanac

Astronomy

Mar. 01, 2015 Rise Set
Actual Time
Civil Twilight
Nautical Twilight
Astronomical Twilight
Moon
Length of Visible Light
Length of Day
Tomorrow will be .
, % of the Moon is Illuminated

Today's Extremes

State Highs State Lows

Community

WunderPhotos

Upload Photos

1,801,550 photos uploaded!

WunderBlogs® & News

Nearby

Air Quality

  Air Quality AQ Index Pollutant
Not available.

Snow Depth

Station Depth Elevation

Earthquake Activity

City Distance Mag. Time & Date
Minimum magnitude displayed is 2.5.

Coastal Water Temperatures

Place Temperature

Nearby Weather Stations